Time;durP1;ratioP1;P1;durP2;ratioP2;P2;SDS_P1;SDS_P2;PMS_P1;PMS_P2;Temp;Humidity;BMP_temperature;BMP_pressure;BME280_temperature;BME280_humidity;BME280_pressure;Samples;Min_cycle;Max_cycle;Signal;HPM_P1;HPM_P2
2023/06/06 00:01:17;;;;;;;3.60;3.30;;;19.40;90.00;;;;;;5012236;28;20026;-51
2023/06/06 00:03:44;;;;;;;6.82;3.60;;;19.40;90.00;;;;;;5012321;28;20385;-50
2023/06/06 00:06:10;;;;;;;10.90;3.55;;;19.30;90.10;;;;;;5012551;28;20021;-52
2023/06/06 00:08:36;;;;;;;4.35;3.70;;;19.20;90.20;;;;;;5012434;28;20022;-48
2023/06/06 00:11:01;;;;;;;4.72;3.53;;;19.20;90.20;;;;;;5011943;28;20639;-51
2023/06/06 00:13:27;;;;;;;4.88;3.70;;;19.20;90.40;;;;;;5009698;28;20026;-48
2023/06/06 00:15:58;;;;;;;7.22;3.97;;;19.20;90.30;;;;;;5012377;28;20474;-47
2023/06/06 00:18:26;;;;;;;5.70;3.63;;;19.20;90.30;;;;;;5012271;28;20018;-52
2023/06/06 00:20:53;;;;;;;6.97;4.20;;;19.20;90.40;;;;;;5011733;28;20375;-48
2023/06/06 00:23:20;;;;;;;6.70;3.70;;;19.30;90.30;;;;;;5012045;28;20052;-49
2023/06/06 00:25:46;;;;;;;6.50;4.10;;;19.30;90.10;;;;;;5012260;28;20069;-47
2023/06/06 00:28:12;;;;;;;5.70;3.70;;;19.30;90.10;;;;;;5012120;28;20054;-48
2023/06/06 00:30:38;;;;;;;5.00;3.03;;;19.20;90.20;;;;;;5011582;28;20061;-49
2023/06/06 00:33:03;;;;;;;4.60;3.40;;;19.10;90.20;;;;;;5011857;28;20037;-47
2023/06/06 00:35:29;;;;;;;4.35;3.35;;;19.10;90.30;;;;;;5011927;28;20033;-53
2023/06/06 00:37:55;;;;;;;6.15;3.45;;;19.10;90.40;;;;;;5012063;28;20045;-50
2023/06/06 00:40:20;;;;;;;4.80;3.63;;;19.10;90.20;;;;;;5011896;28;20048;-46
2023/06/06 00:42:46;;;;;;;4.20;3.58;;;19.00;90.30;;;;;;5011652;28;20416;-47
2023/06/06 00:45:11;;;;;;;8.23;3.67;;;19.00;90.20;;;;;;5010659;28;20545;-52
2023/06/06 00:47:38;;;;;;;7.82;3.70;;;19.10;90.20;;;;;;5011653;28;20034;-53
2023/06/06 00:50:05;;;;;;;5.43;3.15;;;19.00;90.40;;;;;;5011732;28;20099;-51
2023/06/06 00:52:31;;;;;;;4.88;3.53;;;18.90;90.50;;;;;;5011419;28;20028;-48
2023/06/06 00:54:57;;;;;;;4.50;3.63;;;18.80;90.40;;;;;;5011492;28;20014;-46
2023/06/06 00:57:24;;;;;;;9.00;4.13;;;18.80;90.50;;;;;;5011869;28;20056;-50
2023/06/06 00:59:49;;;;;;;7.25;3.30;;;18.80;90.30;;;;;;5011523;28;20037;-49
2023/06/06 01:02:17;;;;;;;8.48;3.60;;;18.80;90.40;;;;;;5011220;28;20119;-48
2023/06/06 01:04:44;;;;;;;3.53;3.22;;;18.80;90.50;;;;;;5011468;28;20106;-49
2023/06/06 01:07:12;;;;;;;7.25;3.42;;;18.70;90.40;;;;;;5011684;28;20113;-49
2023/06/06 01:09:39;;;;;;;5.93;3.50;;;18.60;90.60;;;;;;5011776;28;20541;-49
2023/06/06 01:12:26;;;;;;;8.65;3.40;;;18.40;90.80;;;;;;5011356;28;20486;-54
2023/06/06 01:15:16;;;;;;;7.13;4.00;;;18.40;90.90;;;;;;5010159;28;20486;-52
2023/06/06 01:17:46;;;;;;;4.72;3.55;;;18.60;91.20;;;;;;5011575;28;20030;-51
2023/06/06 01:20:14;;;;;;;4.15;3.55;;;18.20;91.50;;;;;;5010298;28;20049;-51
2023/06/06 01:22:43;;;;;;;4.22;3.53;;;18.10;91.70;;;;;;5011047;28;20026;-48
2023/06/06 01:25:09;;;;;;;4.78;3.85;;;18.10;91.80;;;;;;5011592;28;20431;-51
2023/06/06 01:27:35;;;;;;;7.20;3.67;;;18.10;92.00;;;;;;5011731;28;20022;-53
2023/06/06 01:30:02;;;;;;;6.28;4.25;;;18.10;92.10;;;;;;5011297;28;20402;-51
2023/06/06 01:33:03;;;;;;;12.43;4.05;;;18.10;92.20;;;;;;5014916;28;20118;-51
2023/06/06 01:35:41;;;;;;;8.93;4.07;;;18.00;92.50;;;;;;4971463;28;20042;-50
2023/06/06 01:38:09;;;;;;;6.55;3.88;;;18.00;92.70;;;;;;5015306;28;20083;-50
2023/06/06 01:40:36;;;;;;;4.53;3.92;;;18.00;92.90;;;;;;5014742;28;20486;-51
2023/06/06 01:43:06;;;;;;;12.63;4.50;;;17.90;93.10;;;;;;5015002;28;20033;-53
2023/06/06 01:45:33;;;;;;;4.20;3.70;;;17.80;93.30;;;;;;5015040;28;20030;-54
2023/06/06 01:48:00;;;;;;;7.38;3.83;;;17.80;93.60;;;;;;5014950;28;20549;-53
2023/06/06 01:50:26;;;;;;;8.10;3.92;;;17.80;93.80;;;;;;5014324;28;20068;-48
2023/06/06 01:52:55;;;;;;;8.45;3.97;;;17.80;94.00;;;;;;5014804;28;20025;-51
2023/06/06 01:55:21;;;;;;;4.68;3.97;;;17.70;94.20;;;;;;5014922;28;20022;-51
2023/06/06 01:57:47;;;;;;;15.55;4.25;;;17.70;94.30;;;;;;5014753;28;20105;-51
2023/06/06 02:00:15;;;;;;;4.72;3.75;;;17.70;94.40;;;;;;5013299;28;20030;-52
2023/06/06 02:02:41;;;;;;;7.88;4.85;;;17.70;94.50;;;;;;5014444;28;20049;-50
2023/06/06 02:05:07;;;;;;;5.57;3.92;;;17.60;94.70;;;;;;5014310;28;20076;-49
2023/06/06 02:07:34;;;;;;;6.97;4.28;;;17.70;94.80;;;;;;5014483;28;20030;-52
2023/06/06 02:10:01;;;;;;;3.67;3.38;;;17.60;94.80;;;;;;5014612;28;20018;-50
2023/06/06 02:12:26;;;;;;;5.35;3.90;;;17.60;94.90;;;;;;5013236;28;20393;-46
2023/06/06 02:14:54;;;;;;;5.60;4.20;;;17.60;95.00;;;;;;5014453;28;20022;-50
2023/06/06 02:17:20;;;;;;;5.43;4.13;;;17.50;95.10;;;;;;5013137;28;20033;-50
2023/06/06 02:19:46;;;;;;;9.70;3.90;;;17.50;95.10;;;;;;5014182;28;20060;-49
2023/06/06 02:22:12;;;;;;;3.80;3.50;;;17.50;95.30;;;;;;5013905;28;20097;-49
2023/06/06 02:24:37;;;;;;;7.70;4.18;;;17.50;95.40;;;;;;5012692;28;20026;-50
2023/06/06 02:27:03;;;;;;;7.93;4.15;;;17.40;95.40;;;;;;5014011;28;20490;-50
2023/06/06 02:29:29;;;;;;;7.55;3.65;;;17.40;95.60;;;;;;5014138;28;20079;-54
2023/06/06 02:31:56;;;;;;;4.85;4.07;;;17.30;95.60;;;;;;5013701;28;20022;-50
2023/06/06 02:34:21;;;;;;;5.65;4.43;;;17.30;95.80;;;;;;5013788;28;20540;-50
2023/06/06 02:36:49;;;;;;;8.63;4.40;;;17.30;95.90;;;;;;5012964;28;20033;-53
2023/06/06 02:39:14;;;;;;;7.53;4.47;;;17.20;96.10;;;;;;5013944;28;20109;-49
2023/06/06 02:41:40;;;;;;;5.18;4.00;;;17.10;96.20;;;;;;5013593;28;20105;-49
2023/06/06 02:44:06;;;;;;;6.68;4.15;;;17.00;96.50;;;;;;5013392;28;20030;-51
2023/06/06 02:46:31;;;;;;;6.25;4.28;;;17.00;96.80;;;;;;5013873;28;20076;-50
2023/06/06 02:48:57;;;;;;;7.47;4.43;;;16.90;96.90;;;;;;5013867;28;20513;-52
2023/06/06 02:51:23;;;;;;;6.18;4.32;;;17.00;97.00;;;;;;5013320;28;20053;-51
2023/06/06 02:53:51;;;;;;;5.00;4.57;;;16.90;97.00;;;;;;5013442;28;20025;-52
2023/06/06 02:56:17;;;;;;;5.03;3.83;;;16.90;97.40;;;;;;5012483;28;20022;-50
2023/06/06 02:58:43;;;;;;;4.60;3.63;;;16.70;97.30;;;;;;5013589;28;20033;-53
2023/06/06 03:01:12;;;;;;;10.95;5.10;;;16.70;97.90;;;;;;5013087;28;20037;-52
2023/06/06 03:03:38;;;;;;;4.70;4.00;;;16.70;98.00;;;;;;5012914;28;20086;-52
2023/06/06 03:06:06;;;;;;;10.38;4.40;;;16.60;98.30;;;;;;5013141;28;20033;-50
2023/06/06 03:08:32;;;;;;;7.50;4.25;;;16.50;98.50;;;;;;5013237;28;20018;-50
2023/06/06 03:10:58;;;;;;;6.65;4.03;;;16.40;98.80;;;;;;5011661;28;20040;-51
2023/06/06 03:13:24;;;;;;;6.55;4.95;;;16.40;99.00;;;;;;5011817;28;20030;-47
2023/06/06 03:15:50;;;;;;;8.00;4.57;;;16.30;99.10;;;;;;5013256;28;20371;-53
2023/06/06 03:18:17;;;;;;;9.02;4.43;;;16.40;99.30;;;;;;5013204;28;20030;-54
2023/06/06 03:20:48;;;;;;;6.38;4.55;;;16.30;99.40;;;;;;5012994;28;20036;-50
2023/06/06 03:23:13;;;;;;;6.28;4.50;;;16.30;99.60;;;;;;5013431;28;20022;-54
2023/06/06 03:25:41;;;;;;;7.88;4.88;;;16.30;99.70;;;;;;5013812;28;20430;-53
2023/06/06 03:28:07;;;;;;;8.07;5.15;;;16.40;99.60;;;;;;5013198;28;20363;-49
2023/06/06 03:30:32;;;;;;;4.78;4.35;;;16.40;99.70;;;;;;5011270;28;20033;-49
2023/06/06 03:33:00;;;;;;;7.53;4.18;;;16.40;99.80;;;;;;5012106;28;20030;-51
2023/06/06 03:35:26;;;;;;;6.88;4.25;;;16.40;99.80;;;;;;5012789;28;20168;-51
2023/06/06 03:37:55;;;;;;;6.68;5.35;;;16.40;99.90;;;;;;5013231;28;20562;-51
2023/06/06 03:40:22;;;;;;;4.43;4.03;;;16.40;99.80;;;;;;5013064;28;20394;-49
2023/06/06 03:42:48;;;;;;;9.25;5.10;;;16.40;99.90;;;;;;5011815;28;20032;-50
2023/06/06 03:45:14;;;;;;;8.15;4.60;;;16.40;99.90;;;;;;5012911;28;20030;-50
2023/06/06 03:47:40;;;;;;;5.60;4.45;;;16.40;99.90;;;;;;5012874;28;20108;-50
2023/06/06 03:50:05;;;;;;;7.70;5.15;;;16.40;99.90;;;;;;5012945;28;20036;-51
2023/06/06 03:52:32;;;;;;;6.15;4.78;;;16.50;99.90;;;;;;5012673;28;20453;-48
2023/06/06 03:54:57;;;;;;;10.80;5.05;;;16.50;99.80;;;;;;5012206;28;20026;-49
2023/06/06 03:57:23;;;;;;;7.95;4.90;;;16.50;99.60;;;;;;5011915;28;20466;-52
2023/06/06 03:59:49;;;;;;;4.90;4.30;;;16.60;99.60;;;;;;5013008;28;20033;-54
2023/06/06 04:02:17;;;;;;;5.28;4.07;;;16.70;99.40;;;;;;5012912;28;20022;-51
2023/06/06 04:04:43;;;;;;;5.05;4.05;;;16.80;99.40;;;;;;5012628;28;20029;-54
2023/06/06 04:07:11;;;;;;;5.72;4.72;;;16.80;99.40;;;;;;5012833;28;20033;-54
2023/06/06 04:09:39;;;;;;;9.45;4.43;;;16.80;99.30;;;;;;5012629;28;20024;-53
2023/06/06 04:12:06;;;;;;;5.72;4.60;;;16.80;99.20;;;;;;5012338;28;20018;-49
2023/06/06 04:14:31;;;;;;;6.28;4.15;;;16.90;99.00;;;;;;5011208;28;20022;-49
2023/06/06 04:16:57;;;;;;;5.00;4.20;;;17.00;99.00;;;;;;5011634;28;20037;-49
2023/06/06 04:19:22;;;;;;;5.55;4.47;;;17.00;98.90;;;;;;5012600;28;20402;-50
2023/06/06 04:21:48;;;;;;;7.68;4.47;;;17.10;98.70;;;;;;5012240;28;20117;-52
2023/06/06 04:24:13;;;;;;;7.80;4.40;;;17.20;98.60;;;;;;5012272;28;20041;-53
2023/06/06 04:26:39;;;;;;;8.75;4.75;;;17.30;98.40;;;;;;5012642;28;20363;-52
2023/06/06 04:29:05;;;;;;;7.82;4.38;;;17.40;98.30;;;;;;5012311;28;20021;-52
2023/06/06 04:31:31;;;;;;;5.28;4.18;;;17.40;98.30;;;;;;5011899;28;20080;-48
2023/06/06 04:33:57;;;;;;;7.85;5.18;;;17.40;98.20;;;;;;5011762;28;20033;-51
2023/06/06 04:36:26;;;;;;;10.32;4.65;;;17.50;98.20;;;;;;5012611;28;20037;-50
2023/06/06 04:38:53;;;;;;;7.18;4.47;;;17.60;98.10;;;;;;5012297;28;20022;-53
2023/06/06 04:41:20;;;;;;;10.32;4.57;;;17.60;97.90;;;;;;5010459;28;20026;-52
2023/06/06 04:43:49;;;;;;;8.13;5.00;;;17.80;97.60;;;;;;5012033;28;20461;-50
2023/06/06 04:46:21;;;;;;;5.25;4.40;;;17.90;97.40;;;;;;5012164;28;20029;-50
2023/06/06 04:48:53;;;;;;;8.07;4.40;;;18.00;97.30;;;;;;5010955;28;20030;-50
2023/06/06 04:51:21;;;;;;;13.27;4.60;;;18.10;97.30;;;;;;5011385;28;20022;-54
2023/06/06 04:53:46;;;;;;;11.02;4.28;;;18.30;97.10;;;;;;5011558;28;20041;-52
2023/06/06 04:56:12;;;;;;;7.70;3.92;;;18.60;96.40;;;;;;5012063;28;20031;-50
2023/06/06 04:58:39;;;;;;;7.85;4.25;;;18.90;95.80;;;;;;5011739;28;20022;-50
2023/06/06 05:01:04;;;;;;;5.20;3.78;;;19.50;95.30;;;;;;5012062;28;20440;-54
2023/06/06 05:03:31;;;;;;;8.43;4.47;;;20.10;94.10;;;;;;5011587;28;20030;-49
2023/06/06 05:05:56;;;;;;;4.97;4.32;;;20.80;93.50;;;;;;5010967;28;20040;-52
2023/06/06 05:08:22;;;;;;;5.60;3.88;;;21.40;92.10;;;;;;5011735;28;20026;-48
2023/06/06 05:10:47;;;;;;;6.18;3.92;;;21.90;91.30;;;;;;5011167;28;20030;-51
2023/06/06 05:13:18;;;;;;;9.40;4.50;;;22.30;89.70;;;;;;5010124;28;20552;-53
2023/06/06 05:15:44;;;;;;;14.52;4.50;;;22.30;90.00;;;;;;5011802;28;20102;-51
2023/06/06 05:18:09;;;;;;;9.68;4.93;;;22.80;88.60;;;;;;5011665;28;20159;-52
2023/06/06 05:20:35;;;;;;;7.07;3.90;;;23.10;87.20;;;;;;5011396;28;20100;-50
2023/06/06 05:23:01;;;;;;;6.80;3.92;;;23.20;86.60;;;;;;5010048;28;20028;-50
2023/06/06 05:25:26;;;;;;;9.40;4.18;;;23.30;86.30;;;;;;5011145;28;20076;-51
2023/06/06 05:27:52;;;;;;;6.82;3.53;;;23.30;86.30;;;;;;5011351;28;20026;-52
2023/06/06 05:30:17;;;;;;;11.63;4.55;;;23.50;85.80;;;;;;5011255;28;20104;-56
2023/06/06 05:32:43;;;;;;;5.85;3.75;;;24.00;85.00;;;;;;5010986;28;20029;-53
2023/06/06 05:35:08;;;;;;;6.47;4.00;;;24.20;83.80;;;;;;5011116;28;20033;-52
2023/06/06 05:37:35;;;;;;;6.75;3.60;;;24.40;83.40;;;;;;5011290;28;20026;-56
2023/06/06 05:40:00;;;;;;;7.25;3.95;;;24.60;82.70;;;;;;5011369;28;20034;-49
2023/06/06 05:42:26;;;;;;;7.53;3.95;;;24.70;82.00;;;;;;5011045;28;20072;-55
2023/06/06 05:44:51;;;;;;;8.05;3.50;;;24.80;82.40;;;;;;5011206;28;20439;-48
2023/06/06 05:47:17;;;;;;;10.88;3.70;;;24.90;82.30;;;;;;5011417;28;20022;-49
2023/06/06 05:49:43;;;;;;;7.13;3.83;;;25.00;81.70;;;;;;5011563;28;20101;-52
2023/06/06 05:52:08;;;;;;;8.35;3.50;;;25.20;81.30;;;;;;5011157;28;20018;-52
2023/06/06 05:54:34;;;;;;;5.05;3.90;;;25.30;81.90;;;;;;5011066;28;20395;-51
2023/06/06 05:57:00;;;;;;;7.88;3.67;;;25.70;80.90;;;;;;5011375;28;20490;-52
2023/06/06 05:59:26;;;;;;;8.80;3.97;;;;;;;;;;5009859;28;20057;-51
2023/06/06 06:01:52;;;;;;;10.70;3.70;;;26.00;78.90;;;;;;5010839;28;20048;-50
2023/06/06 06:04:18;;;;;;;6.50;3.70;;;26.20;78.50;;;;;;5009610;28;20029;-51
2023/06/06 06:06:47;;;;;;;5.30;3.58;;;26.20;78.40;;;;;;5011271;28;20057;-53
2023/06/06 06:09:13;;;;;;;11.27;3.97;;;25.60;79.10;;;;;;5011164;28;20045;-51
2023/06/06 06:11:40;;;;;;;5.72;3.70;;;25.70;79.70;;;;;;5010775;28;20026;-49
2023/06/06 06:14:05;;;;;;;5.07;3.47;;;26.00;78.60;;;;;;5009848;28;20033;-51
2023/06/06 06:16:31;;;;;;;6.05;3.38;;;26.10;77.10;;;;;;5011637;28;20018;-53
2023/06/06 06:18:56;;;;;;;7.53;3.70;;;26.10;77.90;;;;;;5014654;28;20030;-53
2023/06/06 06:21:22;;;;;;;5.00;3.63;;;26.20;77.50;;;;;;5014242;28;20478;-53
2023/06/06 06:23:51;;;;;;;7.10;3.10;;;26.10;77.70;;;;;;5014294;28;20073;-56
2023/06/06 06:26:17;;;;;;;6.68;3.55;;;26.20;77.50;;;;;;5014539;28;20057;-48
2023/06/06 06:28:42;;;;;;;7.63;3.63;;;26.20;77.40;;;;;;5014546;28;20030;-52
2023/06/06 06:31:08;;;;;;;3.53;3.22;;;26.30;77.30;;;;;;5013960;28;20018;-54
2023/06/06 06:33:34;;;;;;;6.47;3.80;;;26.60;77.30;;;;;;5014169;28;20445;-54
2023/06/06 06:36:00;;;;;;;6.38;3.50;;;26.70;76.10;;;;;;5013034;28;20033;-51
2023/06/06 06:38:26;;;;;;;5.20;3.45;;;26.70;76.50;;;;;;5014410;28;20516;-53
2023/06/06 06:40:53;;;;;;;5.78;2.75;;;27.00;76.50;;;;;;5014182;28;20025;-50
2023/06/06 06:43:18;;;;;;;9.20;3.45;;;27.30;75.40;;;;;;5013719;28;20091;-52
2023/06/06 06:45:44;;;;;;;4.88;2.92;;;27.40;74.60;;;;;;5014129;28;20022;-48
2023/06/06 06:48:09;;;;;;;6.10;3.33;;;27.10;75.00;;;;;;5014077;28;20144;-51
2023/06/06 06:50:35;;;;;;;9.80;3.70;;;27.60;75.10;;;;;;5013489;28;20160;-51
2023/06/06 06:53:02;;;;;;;7.38;3.13;;;28.10;72.50;;;;;;5013660;28;20053;-54
2023/06/06 06:55:27;;;;;;;3.70;3.40;;;28.40;72.10;;;;;;5012846;28;20022;-46
2023/06/06 06:57:53;;;;;;;5.95;3.55;;;28.40;71.70;;;;;;5013917;28;20038;-53
2023/06/06 07:00:23;;;;;;;6.93;2.95;;;28.40;71.80;;;;;;5013681;28;20087;-54
2023/06/06 07:02:49;;;;;;;5.75;3.10;;;28.10;72.20;;;;;;5014130;28;20388;-52
2023/06/06 07:05:16;;;;;;;4.32;3.10;;;28.40;71.10;;;;;;5013715;28;20022;-53
2023/06/06 07:07:50;;;;;;;7.57;2.97;;;28.40;71.50;;;;;;5013096;28;20121;-56
2023/06/06 07:10:16;;;;;;;4.20;2.95;;;28.40;71.80;;;;;;5011684;28;20022;-52
2023/06/06 07:12:45;;;;;;;4.13;2.92;;;28.90;71.20;;;;;;5002042;28;20554;-52
2023/06/06 07:15:10;;;;;;;3.58;2.90;;;29.20;69.90;;;;;;4993597;28;20026;-52
2023/06/06 07:17:36;;;;;;;3.28;2.92;;;28.80;70.50;;;;;;5011610;28;20113;-54
2023/06/06 07:20:07;;;;;;;3.10;2.80;;;28.60;70.20;;;;;;5013156;28;20104;-57
2023/06/06 07:22:36;;;;;;;3.88;3.00;;;28.90;70.70;;;;;;5007884;28;20049;-55
2023/06/06 07:25:03;;;;;;;8.30;3.92;;;28.80;70.30;;;;;;5007723;28;20041;-60
2023/06/06 07:27:33;;;;;;;5.88;3.30;;;29.20;70.00;;;;;;5007972;28;20449;-54
2023/06/06 07:30:00;;;;;;;6.90;2.90;;;29.20;68.40;;;;;;5014785;28;20021;-54
2023/06/06 07:32:26;;;;;;;3.38;3.08;;;28.80;69.80;;;;;;5019897;28;20057;-56
2023/06/06 07:34:51;;;;;;;7.65;2.78;;;28.90;69.90;;;;;;5012082;28;20113;-53
2023/06/06 07:37:17;;;;;;;3.03;2.83;;;28.90;69.40;;;;;;5011253;28;20073;-54
2023/06/06 07:39:43;;;;;;;2.75;2.53;;;29.00;69.20;;;;;;5011127;28;20050;-55
2023/06/06 07:42:09;;;;;;;3.25;2.95;;;29.30;68.50;;;;;;5011789;28;20022;-58
2023/06/06 07:44:34;;;;;;;4.50;2.67;;;29.20;68.50;;;;;;5011528;28;20100;-56
2023/06/06 07:47:00;;;;;;;4.57;3.30;;;29.80;68.50;;;;;;5009585;28;20460;-61
2023/06/06 07:49:25;;;;;;;3.15;2.72;;;30.80;66.30;;;;;;5011356;28;20030;-60
2023/06/06 07:51:51;;;;;;;2.78;2.58;;;31.10;64.90;;;;;;5009090;28;20045;-54
2023/06/06 07:54:16;;;;;;;3.58;3.03;;;30.80;63.80;;;;;;5012333;28;20026;-48
2023/06/06 07:56:44;;;;;;;2.70;2.50;;;30.60;63.80;;;;;;5012564;28;20079;-50
2023/06/06 07:59:10;;;;;;;3.38;2.70;;;30.80;64.20;;;;;;5012372;28;20034;-50
2023/06/06 08:01:37;;;;;;;5.00;2.85;;;31.20;64.20;;;;;;5010510;28;20033;-56
2023/06/06 08:04:04;;;;;;;5.07;2.70;;;31.70;63.80;;;;;;5011749;28;20021;-52
2023/06/06 08:06:36;;;;;;;5.72;2.78;;;31.60;62.00;;;;;;5012467;28;20050;-53
2023/06/06 08:09:08;;;;;;;2.83;2.63;;;31.20;62.50;;;;;;5012441;28;20032;-54
2023/06/06 08:11:34;;;;;;;4.43;2.75;;;30.90;62.50;;;;;;5012175;28;20021;-52
2023/06/06 08:14:01;;;;;;;4.00;2.50;;;30.70;63.30;;;;;;5012868;28;20018;-53
2023/06/06 08:16:26;;;;;;;3.47;3.17;;;30.80;62.50;;;;;;5011771;28;20030;-50
2023/06/06 08:18:52;;;;;;;14.43;3.92;;;30.70;64.00;;;;;;5019114;28;20049;-54
2023/06/06 08:21:17;;;;;;;4.90;3.08;;;30.50;63.80;;;;;;5019154;28;20029;-50
2023/06/06 08:23:43;;;;;;;4.13;2.55;;;30.60;64.30;;;;;;5019380;28;20026;-47
2023/06/06 08:26:08;;;;;;;7.43;2.63;;;30.80;63.00;;;;;;5017987;28;20034;-52
2023/06/06 08:28:34;;;;;;;8.63;2.58;;;30.30;63.40;;;;;;5018879;28;20026;-49
2023/06/06 08:31:02;;;;;;;5.07;3.05;;;30.00;64.10;;;;;;5019456;28;20026;-49
2023/06/06 08:33:27;;;;;;;4.85;3.22;;;30.10;63.90;;;;;;5019493;28;20453;-51
2023/06/06 08:35:53;;;;;;;6.38;3.03;;;29.90;64.00;;;;;;5019318;28;20034;-47
2023/06/06 08:38:18;;;;;;;4.28;3.15;;;29.30;64.70;;;;;;5019032;28;20086;-52
2023/06/06 08:40:44;;;;;;;15.63;12.45;;;28.50;65.00;;;;;;5018254;28;20072;-50
2023/06/06 08:43:12;;;;;;;58.72;43.92;;;28.30;66.00;;;;;;5019581;28;20022;-54
2023/06/06 08:45:42;;;;;;;7.32;6.60;;;28.40;66.80;;;;;;5019390;28;20017;-55
2023/06/06 08:48:10;;;;;;;6.80;3.30;;;28.70;66.60;;;;;;5019700;28;20029;-50
2023/06/06 08:50:38;;;;;;;6.72;2.95;;;28.40;67.10;;;;;;5020248;28;20124;-55
2023/06/06 08:53:05;;;;;;;3.58;2.67;;;28.10;67.30;;;;;;5018866;28;20397;-52
2023/06/06 08:55:35;;;;;;;3.92;2.97;;;28.30;67.20;;;;;;5016952;28;20097;-51
2023/06/06 08:58:01;;;;;;;6.40;3.03;;;28.30;67.10;;;;;;5017645;28;20022;-48
2023/06/06 09:00:27;;;;;;;7.10;2.90;;;28.30;67.10;;;;;;5017902;28;20041;-46
2023/06/06 09:02:54;;;;;;;9.32;3.60;;;28.60;66.50;;;;;;5017245;28;20022;-51
2023/06/06 09:05:21;;;;;;;8.52;3.42;;;29.00;66.30;;;;;;5017275;28;20022;-52
2023/06/06 09:07:48;;;;;;;7.82;3.22;;;29.30;66.10;;;;;;5021279;28;20148;-50
2023/06/06 09:10:14;;;;;;;6.93;2.85;;;28.90;66.40;;;;;;5022099;28;20092;-53
2023/06/06 09:12:41;;;;;;;4.65;3.45;;;28.20;68.80;;;;;;5020339;28;20026;-52
2023/06/06 09:15:08;;;;;;;7.97;2.92;;;27.50;69.90;;;;;;5019791;28;20061;-46
2023/06/06 09:17:37;;;;;;;3.63;2.97;;;27.00;69.50;;;;;;5021157;28;20052;-48
2023/06/06 09:20:16;;;;;;;4.50;2.85;;;26.80;71.00;;;;;;5018981;28;20026;-47
2023/06/06 09:22:49;;;;;;;3.40;3.10;;;26.80;70.70;;;;;;5014037;28;20389;-47
2023/06/06 09:25:20;;;;;;;7.20;2.90;;;26.80;70.20;;;;;;5008011;28;20513;-50
2023/06/06 09:27:46;;;;;;;3.30;3.00;;;26.70;71.70;;;;;;5015576;28;20046;-46
2023/06/06 09:30:23;;;;;;;9.75;3.00;;;26.80;71.60;;;;;;5011481;28;20025;-47
2023/06/06 09:33:00;;;;;;;5.50;2.88;;;26.70;71.00;;;;;;5018519;28;20030;-47
2023/06/06 09:35:36;;;;;;;5.38;3.03;;;26.40;69.50;;;;;;5018034;28;20018;-52
2023/06/06 09:38:07;;;;;;;4.35;3.58;;;26.10;68.30;;;;;;5018775;28;20026;-46
2023/06/06 09:40:42;;;;;;;4.93;3.15;;;25.90;69.20;;;;;;5017691;28;20030;-47
2023/06/06 09:43:08;;;;;;;;;;;25.60;70.90;;;;;;5018838;28;20021;-47
2023/06/06 09:45:34;;;;;;;7.03;2.90;;;25.40;70.50;;;;;;5019309;28;20292;-50
2023/06/06 09:48:00;;;;;;;6.45;2.80;;;25.50;71.00;;;;;;5019972;28;20018;-50
2023/06/06 09:50:26;;;;;;;54.53;34.45;;;25.60;70.70;;;;;;5020198;28;20025;-52
2023/06/06 09:52:52;;;;;;;30.85;20.60;;;25.50;70.00;;;;;;5003746;28;20490;-47
2023/06/06 09:55:18;;;;;;;8.05;3.58;;;25.80;68.30;;;;;;5005841;28;20036;-53
2023/06/06 09:57:46;;;;;;;5.78;3.88;;;25.90;68.80;;;;;;5006599;28;20057;-54
2023/06/06 10:00:15;;;;;;;4.05;3.30;;;25.60;68.30;;;;;;5006046;28;20030;-53
2023/06/06 10:02:45;;;;;;;6.60;2.83;;;25.50;69.40;;;;;;5006116;28;20023;-52
2023/06/06 10:05:13;;;;;;;6.57;3.15;;;25.50;69.20;;;;;;5003520;28;20057;-54
2023/06/06 10:07:41;;;;;;;3.80;2.67;;;25.60;68.60;;;;;;5003401;28;20033;-49
2023/06/06 10:10:11;;;;;;;5.30;3.08;;;25.50;69.10;;;;;;5003416;28;20030;-53
2023/06/06 10:12:37;;;;;;;15.80;3.25;;;25.40;66.40;;;;;;5003034;28;20030;-51
2023/06/06 10:15:04;;;;;;;11.60;2.92;;;25.20;66.80;;;;;;5002617;28;20029;-52
2023/06/06 10:17:34;;;;;;;6.93;3.10;;;25.30;67.40;;;;;;5002479;28;20031;-53
2023/06/06 10:20:05;;;;;;;2.75;2.35;;;25.50;68.00;;;;;;5001428;28;20018;-52
2023/06/06 10:22:32;;;;;;;5.45;2.80;;;25.60;67.10;;;;;;5000167;28;20449;-51
2023/06/06 10:24:58;;;;;;;6.93;2.70;;;25.60;63.30;;;;;;5001691;28;20046;-49
2023/06/06 10:27:29;;;;;;;3.20;2.35;;;25.60;65.60;;;;;;5002763;28;20027;-50
2023/06/06 10:30:05;;;;;;;3.58;2.38;;;25.50;63.80;;;;;;5002990;28;20397;-53
2023/06/06 10:32:43;;;;;;;4.78;2.88;;;25.10;62.50;;;;;;5011660;28;20040;-51
2023/06/06 10:35:12;;;;;;;2.55;2.35;;;25.30;63.40;;;;;;5012721;28;20030;-49
2023/06/06 10:37:38;;;;;;;5.38;2.42;;;25.20;64.20;;;;;;5013829;28;20022;-49
2023/06/06 10:40:04;;;;;;;4.13;2.38;;;25.30;62.60;;;;;;5012623;28;20077;-50
2023/06/06 10:42:40;;;;;;;5.13;2.63;;;25.40;61.50;;;;;;5013705;28;20022;-48
2023/06/06 10:45:07;;;;;;;6.30;2.20;;;25.50;61.40;;;;;;5013130;28;20022;-50
2023/06/06 10:47:37;;;;;;;8.70;2.83;;;25.50;60.20;;;;;;5010332;28;20101;-49
2023/06/06 10:50:02;;;;;;;3.38;2.35;;;25.30;60.80;;;;;;5014075;28;20497;-49
2023/06/06 10:52:28;;;;;;;3.10;2.25;;;25.30;61.90;;;;;;5013432;28;20033;-50
2023/06/06 10:54:57;;;;;;;4.38;2.50;;;25.30;60.90;;;;;;5013759;28;20038;-52
2023/06/06 10:57:23;;;;;;;6.80;2.50;;;25.30;63.40;;;;;;5014139;28;20045;-49
2023/06/06 10:59:50;;;;;;;5.47;2.45;;;25.50;62.40;;;;;;5014457;28;20030;-50
2023/06/06 11:02:33;;;;;;;5.00;2.75;;;25.50;61.30;;;;;;5013390;28;20030;-48
2023/06/06 11:04:59;;;;;;;3.95;2.30;;;25.60;61.30;;;;;;5012539;28;20022;-49
2023/06/06 11:07:27;;;;;;;2.83;2.38;;;25.30;60.70;;;;;;5012722;28;20033;-50
2023/06/06 11:09:54;;;;;;;3.58;2.72;;;25.30;61.40;;;;;;5013460;28;20030;-49
2023/06/06 11:12:20;;;;;;;5.47;2.90;;;25.30;62.80;;;;;;5011334;28;20026;-52
2023/06/06 11:15:00;;;;;;;3.95;2.58;;;25.30;61.60;;;;;;5013189;28;20037;-49
2023/06/06 11:17:29;;;;;;;9.25;7.28;;;25.30;63.40;;;;;;5012935;28;20072;-47
2023/06/06 11:19:56;;;;;;;3.88;3.05;;;25.40;62.90;;;;;;5013335;28;20022;-53
2023/06/06 11:22:24;;;;;;;6.43;3.00;;;25.30;63.20;;;;;;5010739;28;20018;-49
2023/06/06 11:24:50;;;;;;;8.40;3.13;;;25.30;63.00;;;;;;5008998;28;20089;-47
2023/06/06 11:27:17;;;;;;;7.10;2.65;;;25.40;63.20;;;;;;5012788;28;20057;-48
2023/06/06 11:29:43;;;;;;;3.65;2.42;;;25.40;61.00;;;;;;5012907;28;20029;-50
2023/06/06 11:32:13;;;;;;;8.63;3.40;;;25.40;62.80;;;;;;5008794;28;20566;-49
2023/06/06 11:34:39;;;;;;;7.32;2.83;;;25.40;61.90;;;;;;5008486;28;20104;-51
2023/06/06 11:37:08;;;;;;;4.32;2.58;;;25.30;62.10;;;;;;5010877;28;20017;-50
2023/06/06 11:39:35;;;;;;;2.80;2.60;;;25.10;62.70;;;;;;5012703;28;20049;-51
2023/06/06 11:42:01;;;;;;;2.53;2.35;;;25.20;64.20;;;;;;5012551;28;20026;-50
2023/06/06 11:44:35;;;;;;;8.48;3.50;;;25.30;63.60;;;;;;5012613;28;20033;-51
2023/06/06 11:47:03;;;;;;;9.05;2.63;;;25.40;64.50;;;;;;5005369;28;20022;-50
2023/06/06 11:49:40;;;;;;;5.45;3.08;;;25.60;61.80;;;;;;5012713;28;20080;-49
2023/06/06 11:52:06;;;;;;;4.25;2.55;;;25.50;61.80;;;;;;5012121;28;20069;-51
2023/06/06 11:54:31;;;;;;;6.15;3.08;;;25.60;62.50;;;;;;5012424;28;20367;-53
2023/06/06 11:56:59;;;;;;;10.40;2.97;;;25.50;62.80;;;;;;5011176;28;20042;-54
2023/06/06 11:59:26;;;;;;;8.77;3.13;;;25.50;64.20;;;;;;5006033;28;20034;-50
2023/06/06 12:01:53;;;;;;;4.45;2.40;;;25.60;61.70;;;;;;5011268;28;20029;-51
2023/06/06 12:04:19;;;;;;;6.40;2.53;;;25.60;61.60;;;;;;5011375;28;20041;-54
2023/06/06 12:06:47;;;;;;;7.65;3.42;;;25.60;61.80;;;;;;5011711;28;20038;-52
2023/06/06 12:09:16;;;;;;;4.88;2.50;;;25.60;62.60;;;;;;5012021;28;20088;-53
2023/06/06 12:11:54;;;;;;;3.25;2.72;;;25.70;62.20;;;;;;5012029;28;20030;-54
2023/06/06 12:14:25;;;;;;;5.32;2.72;;;25.60;60.40;;;;;;5010512;28;20108;-51
2023/06/06 12:16:51;;;;;;;3.67;2.80;;;25.60;60.80;;;;;;5012117;28;20077;-54
2023/06/06 12:19:18;;;;;;;4.90;3.00;;;25.70;62.30;;;;;;5011929;28;20084;-55
2023/06/06 12:21:49;;;;;;;2.95;2.50;;;25.80;62.90;;;;;;5011809;28;20052;-54
2023/06/06 12:24:25;;;;;;;49.65;28.35;;;25.70;59.90;;;;;;5011718;28;20641;-53
2023/06/06 12:27:02;;;;;;;16.17;10.00;;;25.60;59.90;;;;;;5012285;28;20080;-52
2023/06/06 12:29:35;;;;;;;7.57;3.65;;;25.40;60.70;;;;;;5010842;28;20453;-50
2023/06/06 12:32:14;;;;;;;8.05;2.88;;;25.30;60.90;;;;;;5002352;28;20030;-53
2023/06/06 12:34:43;;;;;;;4.28;2.90;;;25.10;60.80;;;;;;5010750;28;20034;-50
2023/06/06 12:37:10;;;;;;;3.70;2.45;;;25.00;60.90;;;;;;5011900;28;20026;-50
2023/06/06 12:39:38;;;;;;;2.90;2.45;;;25.20;61.70;;;;;;5011712;28;20029;-51
2023/06/06 12:42:15;;;;;;;4.53;3.22;;;25.30;61.70;;;;;;5011559;28;20022;-52
2023/06/06 12:44:41;;;;;;;2.38;2.08;;;25.50;61.30;;;;;;5010999;28;20037;-49
2023/06/06 12:47:07;;;;;;;3.78;2.42;;;25.60;62.30;;;;;;5008540;28;20018;-50